Time;durP1;ratioP1;P1;durP2;ratioP2;P2;SDS_P1;SDS_P2;PMS_P1;PMS_P2;Temp;Humidity;BMP_temperature;BMP_pressure;BME280_temperature;BME280_humidity;BME280_pressure;Samples;Min_cycle;Max_cycle;Signal;HPM_P1;HPM_P2
2022/12/10 09:15:38;;;;;;;66.03;21.23;;;;;;;-1.21;100.00;100872.00;5108914;27;20423;-74
2022/12/10 09:18:03;;;;;;;79.03;23.10;;;;;;;-1.20;100.00;100872.84;5108746;28;20081;-73
2022/12/10 09:20:32;;;;;;;84.70;24.88;;;;;;;-1.26;100.00;100867.13;5094907;28;20035;-74
2022/12/10 09:22:57;;;;;;;68.20;27.10;;;;;;;-1.25;100.00;100871.47;5088101;28;20112;-73
2022/12/10 09:25:23;;;;;;;65.55;26.05;;;;;;;-1.24;100.00;100864.34;5097222;28;20107;-74
2022/12/10 09:27:48;;;;;;;65.53;26.65;;;;;;;-1.18;100.00;100869.06;5102739;28;20451;-75
2022/12/10 09:30:14;;;;;;;65.13;23.65;;;;;;;-1.15;100.00;100875.91;5089916;28;20059;-74
2022/12/10 09:32:39;;;;;;;61.15;24.45;;;;;;;-1.17;100.00;100878.69;5088556;28;20435;-74
2022/12/10 09:35:06;;;;;;;63.08;24.85;;;;;;;-1.14;100.00;100874.94;5094049;28;20020;-73
2022/12/10 09:37:31;;;;;;;77.78;25.88;;;;;;;-1.15;100.00;100876.72;5108643;28;20028;-74
2022/12/10 09:39:56;;;;;;;95.80;26.33;;;;;;;-1.15;100.00;100882.03;5069750;28;20372;-73
2022/12/10 09:43:15;;;;;;;83.40;26.05;;;;;;;-1.09;100.00;100881.47;5069192;28;20051;-73
2022/12/10 09:45:46;;;;;;;61.60;25.48;;;;;;;-1.06;100.00;100888.28;5078962;28;20428;-75
2022/12/10 09:48:14;;;;;;;60.28;24.52;;;;;;;-1.03;100.00;100895.13;5089199;28;20479;-72
2022/12/10 09:50:55;;;;;;;77.30;27.08;;;;;;;-1.05;100.00;100891.78;5089117;28;20097;-73
2022/12/10 09:53:21;;;;;;;67.18;26.08;;;;;;;-1.04;100.00;100894.31;5088103;28;20035;-72
2022/12/10 09:55:48;;;;;;;60.13;26.48;;;;;;;-1.00;100.00;100890.34;5107970;28;20034;-74
2022/12/10 09:58:25;;;;;;;61.95;26.60;;;;;;;-0.96;100.00;100897.03;5091503;28;20024;-74
2022/12/10 10:01:03;;;;;;;62.95;26.92;;;;;;;-0.94;100.00;100897.72;5075067;28;20752;-73
2022/12/10 10:03:34;;;;;;;71.20;26.42;;;;;;;-0.90;100.00;100906.25;5079616;28;20028;-72
2022/12/10 10:06:03;;;;;;;62.10;26.92;;;;;;;-0.84;100.00;100894.19;5100006;28;20033;-72
2022/12/10 10:08:40;;;;;;;63.63;26.42;;;;;;;-0.78;100.00;100904.22;5095837;28;20040;-73
2022/12/10 10:11:12;;;;;;;58.08;25.13;;;;;;;-0.74;100.00;100903.78;5087828;28;20061;-75
2022/12/10 10:13:58;;;;;;;68.50;31.58;;;;;;;-0.69;100.00;100910.44;5088851;28;20051;-74
2022/12/10 10:16:25;;;;;;;61.03;26.02;;;;;;;-0.74;100.00;100919.72;5095692;28;20031;-74
2022/12/10 10:19:01;;;;;;;58.85;24.98;;;;;;;-0.79;100.00;100919.31;5100311;28;20024;-72
2022/12/10 10:21:30;;;;;;;54.17;24.05;;;;;;;-0.82;100.00;100910.81;5076600;28;20340;-74
2022/12/10 10:23:56;;;;;;;56.78;25.75;;;;;;;-0.83;100.00;100909.97;5078776;28;20119;-74
2022/12/10 10:26:26;;;;;;;63.13;24.90;;;;;;;-0.81;100.00;100912.50;5078351;28;20500;-74
2022/12/10 10:29:04;;;;;;;54.35;25.90;;;;;;;-0.79;100.00;100910.50;5073582;28;20455;-71
2022/12/10 10:31:32;;;;;;;58.15;24.58;;;;;;;-0.81;100.00;100915.16;5083696;28;20089;-70
2022/12/10 10:34:04;;;;;;;58.08;26.17;;;;;;;-0.78;100.00;100906.88;5082374;28;20447;-72
2022/12/10 10:36:35;;;;;;;59.75;25.17;;;;;;;-0.75;100.00;100901.25;5054881;28;20031;-74
2022/12/10 10:39:11;;;;;;;63.53;27.48;;;;;;;-0.69;100.00;100913.94;5056517;28;20032;-76
2022/12/10 10:41:39;;;;;;;59.50;26.02;;;;;;;-0.70;100.00;100912.28;5073800;28;20028;-77
2022/12/10 10:44:14;;;;;;;57.70;25.55;;;;;;;-0.64;100.00;100906.34;5094223;28;20024;-78
2022/12/10 10:46:41;;;;;;;63.47;27.55;;;;;;;-0.62;100.00;100908.84;5088128;28;20375;-74
2022/12/10 10:49:28;;;;;;;68.78;26.25;;;;;;;-0.59;100.00;100905.91;5074595;28;20020;-74
2022/12/10 10:51:59;;;;;;;60.58;25.50;;;;;;;-0.61;100.00;100906.06;5073562;28;20520;-83
2022/12/10 10:54:45;;;;;;;58.45;24.73;;;;;;;-0.54;100.00;100907.13;5073293;28;20059;-75
2022/12/10 10:57:16;;;;;;;65.50;28.13;;;;;;;-0.50;100.00;100906.81;5073258;28;20037;-72
2022/12/10 10:59:42;;;;;;;57.72;25.50;;;;;;;-0.46;100.00;100906.38;5074447;28;20028;-72
2022/12/10 11:02:29;;;;;;;57.00;26.42;;;;;;;-0.38;100.00;100905.59;5077105;28;20035;-75
2022/12/10 11:04:58;;;;;;;57.78;25.27;;;;;;;-0.38;100.00;100900.28;5085620;28;20043;-76
2022/12/10 11:07:26;;;;;;;59.03;24.58;;;;;;;-0.38;100.00;100898.47;5079329;28;20024;-71
2022/12/10 11:09:54;;;;;;;58.75;25.85;;;;;;;-0.40;100.00;100899.63;5094764;28;20092;-75
2022/12/10 11:12:36;;;;;;;57.15;27.42;;;;;;;-0.39;100.00;100893.31;5088120;28;20488;-75
2022/12/10 11:15:22;;;;;;;63.25;26.20;;;;;;;-0.47;100.00;100890.56;5090726;28;20375;-73
2022/12/10 11:17:54;;;;;;;53.83;25.27;;;;;;;-0.49;100.00;100888.06;5079710;28;20036;-71
2022/12/10 11:20:24;;;;;;;;;;;;;;;-0.39;100.00;100898.63;5091608;28;20027;-73
2022/12/10 11:22:53;;;;;;;60.63;23.80;;;;;;;-0.52;100.00;100892.84;5091031;28;19912;-71
2022/12/10 11:25:33;;;;;;;52.28;23.42;;;;;;;-0.61;100.00;100890.09;5094430;28;20024;-71
2022/12/10 11:28:40;;;;;;;55.63;23.08;;;;;;;-0.60;100.00;100890.97;5093236;28;20070;-71
2022/12/10 11:31:25;;;;;;;52.97;22.85;;;;;;;-0.63;100.00;100892.09;5076189;28;20031;-72
2022/12/10 11:34:05;;;;;;;52.45;23.02;;;;;;;-0.62;100.00;100884.94;5091531;28;20059;-71
2022/12/10 11:36:50;;;;;;;59.60;24.73;;;;;;;-0.58;100.00;100883.66;5093789;28;20020;-70
2022/12/10 11:39:30;;;;;;;53.95;24.55;;;;;;;-0.52;100.00;100882.22;5093897;28;20020;-71
2022/12/10 11:42:07;;;;;;;56.70;25.55;;;;;;;-0.45;100.00;100885.94;5088833;28;20036;-72
2022/12/10 11:44:57;;;;;;;60.65;25.63;;;;;;;-0.40;100.00;100891.63;5085857;28;20028;-73
2022/12/10 11:47:43;;;;;;;57.22;23.70;;;;;;;-0.40;100.00;100883.66;5074359;28;20017;-73
2022/12/10 11:50:32;;;;;;;55.17;25.02;;;;;;;-0.38;100.00;100894.97;5074066;28;20047;-73
2022/12/10 11:53:13;;;;;;;49.33;22.02;;;;;;;-0.39;100.00;100893.31;5054098;28;20033;-74
2022/12/10 11:55:44;;;;;;;51.65;23.27;;;;;;;-0.43;100.00;100887.44;5053837;28;20423;-70
2022/12/10 11:58:12;;;;;;;49.33;21.70;;;;;;;-0.46;100.00;100893.06;5065734;28;20060;-71
2022/12/10 12:01:21;;;;;;;49.45;22.15;;;;;;;-0.42;100.00;100893.63;5059696;28;20094;-71
2022/12/10 12:03:56;;;;;;;48.08;22.50;;;;;;;-0.46;100.00;100897.56;5055786;28;20239;-69
2022/12/10 12:06:27;;;;;;;48.53;22.23;;;;;;;-0.55;100.00;100889.50;5073213;28;20028;-69
2022/12/10 12:09:05;;;;;;;54.53;24.60;;;;;;;-0.55;100.00;100896.66;5060122;28;20029;-71
2022/12/10 12:12:04;;;;;;;50.03;22.85;;;;;;;-0.59;100.00;100888.16;5092159;28;20028;-69
2022/12/10 12:14:40;;;;;;;58.35;24.30;;;;;;;-0.60;100.00;100893.63;5093276;28;20134;-71
2022/12/10 12:17:28;;;;;;;51.30;21.65;;;;;;;-0.58;100.00;100894.28;5085643;28;20359;-68
2022/12/10 12:20:20;;;;;;;51.92;24.40;;;;;;;-0.58;100.00;100895.13;5060107;28;20027;-68
2022/12/10 12:22:52;;;;;;;50.65;21.83;;;;;;;-0.56;100.00;100898.47;5071626;28;20035;-70
2022/12/10 12:25:34;;;;;;;48.03;20.95;;;;;;;-0.52;100.00;100898.19;5073220;28;20055;-68
2022/12/10 12:28:06;;;;;;;54.17;21.65;;;;;;;-0.44;100.00;100890.25;5053362;28;20033;-68
2022/12/10 12:30:35;;;;;;;52.83;23.92;;;;;;;-0.37;100.00;100891.34;5066316;28;20073;-71
2022/12/10 12:33:17;;;;;;;52.47;22.65;;;;;;;-0.33;100.00;100883.88;5071147;28;20040;-72
2022/12/10 12:35:52;;;;;;;51.00;22.05;;;;;;;-0.32;100.00;100889.03;5078488;28;20055;-70
2022/12/10 12:38:31;;;;;;;50.70;23.10;;;;;;;-0.34;100.00;100885.72;5093538;28;20047;-73
2022/12/10 12:41:00;;;;;;;43.85;19.33;;;;;;;-0.30;100.00;100887.09;5081122;28;20108;-71
2022/12/10 12:43:38;;;;;;;49.15;23.30;;;;;;;-0.30;100.00;100887.09;5074191;28;20406;-71
2022/12/10 12:46:11;;;;;;;50.40;23.20;;;;;;;-0.29;100.00;100894.06;5084874;28;20028;-71
2022/12/10 12:48:46;;;;;;;51.65;22.10;;;;;;;-0.28;100.00;100895.72;5090781;28;20032;-74
2022/12/10 12:51:32;;;;;;;49.97;23.23;;;;;;;-0.23;100.00;100892.59;5094082;28;20024;-69
2022/12/10 12:53:57;;;;;;;52.10;24.10;;;;;;;-0.18;100.00;100887.69;5088435;28;20107;-71
2022/12/10 12:56:54;;;;;;;55.65;24.30;;;;;;;-0.17;100.00;100886.69;5091932;28;20428;-69
2022/12/10 12:59:35;;;;;;;53.95;22.80;;;;;;;-0.17;100.00;100897.31;5092338;28;20036;-73
2022/12/10 13:02:16;;;;;;;45.38;21.42;;;;;;;-0.22;100.00;100900.44;5092182;28;20016;-72
2022/12/10 13:04:42;;;;;;;48.65;22.15;;;;;;;-0.31;100.00;100901.34;5113274;28;20036;-72
2022/12/10 13:07:13;;;;;;;44.72;21.08;;;;;;;-0.32;100.00;100898.84;5109242;28;20099;-71
2022/12/10 13:09:48;;;;;;;49.92;21.02;;;;;;;-0.30;100.00;100903.03;5069310;28;20033;-71
2022/12/10 13:12:32;;;;;;;46.78;21.25;;;;;;;-0.32;100.00;100904.16;5072690;28;20024;-72
2022/12/10 13:14:57;;;;;;;42.75;19.88;;;;;;;-0.33;100.00;100895.38;5092321;28;20051;-72
2022/12/10 13:17:27;;;;;;;46.58;21.92;;;;;;;-0.33;100.00;100899.81;5091447;28;20024;-73
2022/12/10 13:19:54;;;;;;;46.55;21.80;;;;;;;-0.29;100.00;100899.38;5081557;28;20057;-72
2022/12/10 13:22:37;;;;;;;50.00;23.50;;;;;;;-0.22;100.00;100905.75;5071484;28;20031;-71
2022/12/10 13:25:17;;;;;;;48.92;20.80;;;;;;;-0.22;100.00;100908.41;5092666;28;20102;-72
2022/12/10 13:27:56;;;;;;;40.15;19.50;;;;;;;-0.25;100.00;100899.91;5092435;28;20016;-72
2022/12/10 13:30:27;;;;;;;49.72;20.63;;;;;;;-0.27;100.00;100901.88;5087551;28;20020;-72
2022/12/10 13:33:19;;;;;;;42.53;20.20;;;;;;;-0.25;100.00;100907.91;5092570;28;20020;-71
2022/12/10 13:35:58;;;;;;;50.28;21.65;;;;;;;-0.28;100.00;100909.03;5069136;28;20064;-71
2022/12/10 13:38:26;;;;;;;47.88;20.08;;;;;;;-0.31;100.00;100909.34;5092556;28;20024;-72
2022/12/10 13:46:57;;;;;;;51.47;20.58;;;;;;;-0.29;100.00;100904.69;5075098;28;20433;-72
2022/12/10 13:49:26;;;;;;;45.80;19.80;;;;;;;-0.34;100.00;100912.31;5074213;28;20020;-70
2022/12/10 13:51:59;;;;;;;48.60;20.90;;;;;;;-0.38;100.00;100906.47;5089517;28;20074;-71
2022/12/10 13:54:30;;;;;;;49.92;20.83;;;;;;;-0.40;100.00;100902.28;5078359;28;20478;-70
2022/12/10 13:57:11;;;;;;;47.95;21.17;;;;;;;-0.40;100.00;100902.28;5071935;28;20111;-71
2022/12/10 13:59:57;;;;;;;52.72;23.33;;;;;;;-0.40;100.00;100912.91;5069580;28;20351;-69
2022/12/10 14:02:38;;;;;;;58.40;23.25;;;;;;;-0.30;100.00;100921.66;5072438;28;20029;-71
2022/12/10 14:05:32;;;;;;;56.42;23.15;;;;;;;-0.33;100.00;100926.41;5074171;28;20024;-69
2022/12/10 14:08:01;;;;;;;47.47;21.48;;;;;;;-0.43;100.00;100919.34;5074117;28;20024;-69
2022/12/10 14:10:32;;;;;;;51.60;22.85;;;;;;;-0.48;100.00;100918.97;5095363;28;20596;-71
2022/12/10 14:12:58;;;;;;;49.57;22.30;;;;;;;-0.48;100.00;100926.97;5095841;28;20458;-71
2022/12/10 14:15:26;;;;;;;52.65;22.10;;;;;;;-0.49;100.00;100925.28;5095440;28;20297;-72
2022/12/10 14:17:59;;;;;;;51.80;23.00;;;;;;;-0.54;100.00;100919.59;5095495;28;20119;-75
2022/12/10 14:20:25;;;;;;;53.13;21.38;;;;;;;-0.52;100.00;100924.75;5081899;28;20024;-69
2022/12/10 14:22:53;;;;;;;64.70;29.77;;;;;;;-0.48;100.00;100931.41;5074022;28;20036;-72
2022/12/10 14:25:22;;;;;;;55.20;22.80;;;;;;;-0.43;100.00;100924.66;5075475;28;20028;-74
2022/12/10 14:27:52;;;;;;;54.13;22.85;;;;;;;-0.39;100.00;100925.22;5075039;28;20101;-73
2022/12/10 14:30:23;;;;;;;57.60;23.45;;;;;;;-0.41;100.00;100921.88;5084239;28;20020;-74
2022/12/10 14:32:50;;;;;;;57.08;23.40;;;;;;;-0.39;100.00;100934.03;5074373;28;20028;-71
2022/12/10 14:35:23;;;;;;;55.00;24.23;;;;;;;-0.41;100.00;100928.03;5078040;28;20031;-71
2022/12/10 14:37:50;;;;;;;58.30;24.08;;;;;;;-0.38;100.00;100927.72;5073502;28;20048;-69
2022/12/10 14:40:23;;;;;;;56.45;22.33;;;;;;;-0.36;100.00;100935.56;5079272;28;20020;-71
2022/12/10 14:42:50;;;;;;;60.15;24.50;;;;;;;-0.42;100.00;100930.84;5080047;28;20178;-70
2022/12/10 14:45:16;;;;;;;57.72;23.23;;;;;;;-0.42;100.00;100936.16;5080715;28;20020;-72
2022/12/10 14:47:41;;;;;;;55.08;23.05;;;;;;;-0.42;100.00;100936.16;5082372;28;20073;-70
2022/12/10 14:50:15;;;;;;;55.15;23.85;;;;;;;-0.42;100.00;100936.16;5082285;28;20024;-72
2022/12/10 14:52:44;;;;;;;55.35;22.15;;;;;;;-0.44;100.00;100940.78;5082587;28;20042;-71
2022/12/10 14:55:19;;;;;;;50.65;21.27;;;;;;;-0.44;100.00;100932.81;5092229;28;20036;-71
2022/12/10 14:57:50;;;;;;;60.90;24.52;;;;;;;-0.39;100.00;100941.19;5094386;28;20032;-70
2022/12/10 15:00:21;;;;;;;56.97;23.15;;;;;;;-0.35;100.00;100934.56;5097826;28;20019;-73
2022/12/10 15:02:54;;;;;;;57.80;24.00;;;;;;;-0.33;100.00;100934.41;5098301;28;20030;-70
2022/12/10 15:05:23;;;;;;;60.58;22.75;;;;;;;-0.32;100.00;100931.59;5089641;28;20028;-72
2022/12/10 15:07:55;;;;;;;64.70;24.83;;;;;;;-0.36;100.00;100932.91;5084388;28;20375;-71
2022/12/10 15:10:26;;;;;;;58.10;23.90;;;;;;;-0.33;100.00;100934.41;5086433;28;20033;-70
2022/12/10 15:12:53;;;;;;;63.97;23.38;;;;;;;-0.28;100.00;100929.47;5078116;28;20395;-70
2022/12/10 15:15:28;;;;;;;61.20;24.67;;;;;;;-0.27;100.00;100939.97;5083491;28;20047;-72
2022/12/10 15:18:08;;;;;;;62.47;25.10;;;;;;;-0.30;100.00;100934.94;5084819;28;20027;-72
2022/12/10 15:20:47;;;;;;;68.80;26.45;;;;;;;-0.32;100.00;100944.88;5094572;28;20023;-73
2022/12/10 15:23:24;;;;;;;67.97;26.52;;;;;;;-0.35;100.00;100942.53;5082074;28;20456;-74
2022/12/10 15:25:52;;;;;;;68.10;25.30;;;;;;;-0.36;100.00;100946.19;5085087;28;20028;-72
2022/12/10 15:28:27;;;;;;;70.75;25.38;;;;;;;-0.31;100.00;100946.56;5091329;28;20032;-73
2022/12/10 15:30:58;;;;;;;68.75;25.67;;;;;;;-0.32;100.00;100946.72;5084481;28;20024;-69
2022/12/10 15:33:31;;;;;;;71.22;28.63;;;;;;;-0.32;100.00;100942.22;5078925;28;20376;-74
2022/12/10 15:35:58;;;;;;;79.40;26.65;;;;;;;-0.37;100.00;100948.00;5074231;28;20111;-77
2022/12/10 15:38:24;;;;;;;70.60;28.60;;;;;;;-0.42;100.00;100944.97;5064763;28;20097;-78
2022/12/10 15:40:50;;;;;;;67.30;25.88;;;;;;;-0.45;100.00;100957.72;5086602;28;20045;-71
2022/12/10 15:43:29;;;;;;;76.80;28.17;;;;;;;-0.42;100.00;100954.78;5076085;28;20046;-74
2022/12/10 15:45:56;;;;;;;73.05;26.67;;;;;;;-0.39;100.00;100952.63;5069094;28;20041;-76
2022/12/10 15:48:23;;;;;;;70.97;25.27;;;;;;;-0.35;100.00;100953.16;5076634;28;20069;-74
2022/12/10 15:50:49;;;;;;;75.05;27.25;;;;;;;-0.34;100.00;100952.19;5080267;28;20029;-77
2022/12/10 15:53:25;;;;;;;61.97;25.05;;;;;;;-0.33;100.00;100948.53;5077463;28;20099;-74
2022/12/10 15:55:50;;;;;;;74.82;28.20;;;;;;;-0.29;100.00;100955.22;5077596;28;20062;-71
2022/12/10 15:58:15;;;;;;;71.13;25.60;;;;;;;-0.26;100.00;100952.25;5080195;28;20099;-71
2022/12/10 16:00:43;;;;;;;71.13;25.90;;;;;;;-0.21;100.00;100950.00;5080255;28;20021;-71
2022/12/10 16:03:11;;;;;;;75.32;25.42;;;;;;;-0.19;100.00;100950.66;5085530;28;20028;-69
2022/12/10 16:05:38;;;;;;;70.43;26.33;;;;;;;-0.16;100.00;100951.38;5073636;28;20035;-70
2022/12/10 16:08:17;;;;;;;75.25;27.65;;;;;;;-0.17;100.00;100955.00;5076597;28;20025;-70
2022/12/10 16:10:43;;;;;;;71.95;25.88;;;;;;;-0.18;100.00;100954.19;5083087;28;20077;-69
2022/12/10 16:13:45;;;;;;;66.10;25.25;;;;;;;-0.21;100.00;100944.66;5085594;28;20103;-72
2022/12/10 16:16:13;;;;;;;64.13;23.95;;;;;;;-0.23;100.00;100954.63;5071614;28;20028;-74
2022/12/10 16:18:38;;;;;;;64.38;25.20;;;;;;;-0.21;100.00;100965.94;5076539;28;20044;-72
2022/12/10 16:21:05;;;;;;;60.42;24.25;;;;;;;-0.23;100.00;100957.28;5081013;28;20406;-74
2022/12/10 16:23:31;;;;;;;59.00;24.02;;;;;;;-0.25;100.00;100948.63;5084859;28;20450;-70
2022/12/10 16:25:57;;;;;;;82.65;35.55;;;;;;;-0.25;100.00;100945.13;5083462;28;20111;-69
2022/12/10 16:28:23;;;;;;;70.95;30.05;;;;;;;-0.26;100.00;100952.25;5076195;28;20033;-73
2022/12/10 16:30:54;;;;;;;67.25;28.48;;;;;;;-0.29;100.00;100951.72;5078664;28;20159;-72
2022/12/10 16:33:22;;;;;;;68.15;26.58;;;;;;;-0.34;100.00;100944.22;5082521;28;20028;-71
2022/12/10 16:35:48;;;;;;;72.97;27.45;;;;;;;-0.33;100.00;100950.34;5077718;28;20193;-68
2022/12/10 16:38:14;;;;;;;65.00;26.90;;;;;;;-0.28;100.00;100953.41;5071794;28;20100;-74
2022/12/10 16:40:40;;;;;;;60.80;24.13;;;;;;;-0.26;100.00;100949.59;5073998;28;20462;-72
2022/12/10 16:43:11;;;;;;;68.28;25.52;;;;;;;-0.30;100.00;100955.38;5071420;28;20097;-70
2022/12/10 16:45:38;;;;;;;72.32;25.52;;;;;;;-0.35;100.00;100958.47;5081311;28;20038;-71
2022/12/10 16:48:04;;;;;;;60.88;24.75;;;;;;;-0.37;100.00;100963.94;5076778;28;20044;-71
2022/12/10 16:50:30;;;;;;;64.68;26.13;;;;;;;-0.36;100.00;100962.97;5078201;28;20404;-70
2022/12/10 16:52:56;;;;;;;63.10;23.92;;;;;;;-0.36;100.00;100959.50;5066463;28;20028;-69
2022/12/10 16:55:24;;;;;;;67.22;26.90;;;;;;;-0.38;100.00;100956.13;5085483;28;20028;-68
2022/12/10 16:57:51;;;;;;;59.55;23.65;;;;;;;-0.34;100.00;100962.81;5070278;28;20095;-69
2022/12/10 17:00:22;;;;;;;60.47;25.48;;;;;;;-0.38;100.00;100964.97;5071016;28;21494;-69
2022/12/10 17:02:51;;;;;;;60.55;22.80;;;;;;;-0.33;100.00;100967.16;5072113;28;20035;-69
2022/12/10 17:05:30;;;;;;;63.70;24.88;;;;;;;-0.34;100.00;100970.78;5083416;28;20032;-73
2022/12/10 17:07:56;;;;;;;63.00;25.08;;;;;;;-0.32;100.00;100966.16;5076846;28;20021;-72
2022/12/10 17:11:44;;;;;;;63.60;23.77;;;;;;;-0.27;100.00;100966.56;5079043;28;20042;-67
2022/12/10 17:13:11;;;;;;;64.63;24.92;;;;;;;-0.25;100.00;100967.22;5079177;28;20532;-69
2022/12/10 17:15:37;;;;;;;66.25;24.23;;;;;;;-0.24;100.00;100971.56;5069719;28;20185;-68
2022/12/10 17:18:02;;;;;;;63.95;23.67;;;;;;;-0.23;100.00;100977.72;5065696;28;20115;-68
2022/12/10 17:20:28;;;;;;;56.97;24.05;;;;;;;-0.24;100.00;100974.22;5081925;28;20031;-68
2022/12/10 17:22:54;;;;;;;62.45;23.92;;;;;;;-0.23;100.00;100983.03;5080723;28;20040;-67
2022/12/10 17:25:19;;;;;;;57.90;24.20;;;;;;;-0.23;100.00;100988.34;5080356;28;20047;-67
2022/12/10 17:27:45;;;;;;;61.95;25.15;;;;;;;-0.22;100.00;100985.53;5083039;28;20047;-67
2022/12/10 17:30:13;;;;;;;58.53;22.65;;;;;;;-0.23;100.00;100983.88;5077867;28;20026;-69
2022/12/10 17:32:39;;;;;;;61.55;24.58;;;;;;;-0.26;100.00;100986.00;5080837;28;20028;-67
2022/12/10 17:35:08;;;;;;;70.32;26.50;;;;;;;-0.23;100.00;100989.22;5076073;28;20051;-67
2022/12/10 17:37:34;;;;;;;62.17;26.77;;;;;;;-0.23;100.00;100989.22;5081248;28;20020;-67
2022/12/10 17:40:00;;;;;;;82.78;26.75;;;;;;;-0.23;100.00;100975.06;5081908;28;20572;-68
2022/12/10 17:42:25;;;;;;;63.58;25.33;;;;;;;-0.23;100.00;100981.22;5081806;28;20039;-70
2022/12/10 17:44:50;;;;;;;71.95;27.00;;;;;;;-0.21;100.00;100981.91;5082482;28;20063;-68
2022/12/10 17:47:20;;;;;;;64.43;24.63;;;;;;;-0.17;100.00;100973.63;5079649;28;20032;-68
2022/12/10 17:49:46;;;;;;;68.05;27.00;;;;;;;-0.12;100.00;100974.84;5080781;28;20043;-70
2022/12/10 17:52:11;;;;;;;67.05;26.65;;;;;;;-0.04;100.00;100984.72;5084382;28;20064;-72
2022/12/10 17:54:36;;;;;;;67.45;25.33;;;;;;;-0.01;100.00;100987.09;5075986;28;20032;-73
2022/12/10 17:57:04;;;;;;;73.00;26.75;;;;;;;0.00;100.00;100988.75;5074997;28;20036;-69
2022/12/10 17:59:31;;;;;;;63.83;26.02;;;;;;;0.06;100.00;100981.97;5079564;28;20028;-71
2022/12/10 18:01:57;;;;;;;62.25;26.30;;;;;;;0.13;100.00;100989.19;5065351;28;20032;-71
2022/12/10 18:04:22;;;;;;;71.28;26.30;;;;;;;0.16;100.00;100988.88;5076140;28;20036;-74
2022/12/10 18:06:47;;;;;;;68.20;26.80;;;;;;;0.10;100.00;100978.84;5070916;28;20059;-78
2022/12/10 18:09:13;;;;;;;69.38;27.98;;;;;;;0.15;100.00;100983.72;5078100;28;20111;-70
2022/12/10 18:11:40;;;;;;;75.07;29.08;;;;;;;0.19;100.00;100982.41;5077282;28;20448;-74
2022/12/10 18:14:06;;;;;;;73.47;27.92;;;;;;;0.21;100.00;100975.09;5081012;28;20475;-73
2022/12/10 18:16:33;;;;;;;70.07;29.83;;;;;;;0.21;100.00;100976.94;5077889;28;20028;-73
2022/12/10 18:19:01;;;;;;;68.10;29.00;;;;;;;0.21;100.00;100982.25;5082474;28;20066;-73
2022/12/10 18:21:26;;;;;;;78.30;29.17;;;;;;;0.22;100.00;100983.94;5081970;28;20041;-70
2022/12/10 18:23:52;;;;;;;77.82;31.33;;;;;;;0.25;100.00;100986.31;5077804;28;21218;-70
2022/12/10 18:26:21;;;;;;;78.88;34.00;;;;;;;0.29;100.00;100991.16;5077326;28;20431;-67
2022/12/10 18:28:48;;;;;;;77.15;29.17;;;;;;;0.28;100.00;100991.31;5083423;28;20016;-72
2022/12/10 18:31:20;;;;;;;72.10;28.60;;;;;;;0.28;100.00;100989.47;5079835;28;20111;-68
2022/12/10 18:33:48;;;;;;;79.20;29.17;;;;;;;0.30;100.00;100992.84;5086996;28;20048;-71
2022/12/10 18:36:21;;;;;;;82.90;30.88;;;;;;;0.32;100.00;100992.69;5082230;28;20474;-72
2022/12/10 18:38:47;;;;;;;80.82;32.97;;;;;;;0.31;100.00;100985.69;5083885;28;20091;-70
2022/12/10 18:41:14;;;;;;;79.18;30.30;;;;;;;0.32;100.00;100990.03;5077924;28;20384;-69
2022/12/10 18:43:40;;;;;;;83.95;30.25;;;;;;;0.31;100.00;100991.00;5081069;28;20297;-68
2022/12/10 18:46:06;;;;;;;84.32;31.67;;;;;;;0.34;100.00;100990.69;5076924;28;20129;-68
2022/12/10 18:48:31;;;;;;;85.03;32.78;;;;;;;0.34;100.00;100983.53;5085686;28;20372;-69
2022/12/10 18:50:56;;;;;;;75.30;30.70;;;;;;;0.39;100.00;100987.56;5076189;28;20141;-68
2022/12/10 18:53:22;;;;;;;77.95;30.90;;;;;;;0.39;100.00;100988.41;5082510;28;20016;-70
2022/12/10 18:55:47;;;;;;;75.18;29.38;;;;;;;0.37;100.00;100993.03;5078133;28;20031;-70
2022/12/10 18:58:12;;;;;;;64.80;27.88;;;;;;;0.31;100.00;100991.00;5080858;28;20423;-68
2022/12/10 19:00:39;;;;;;;54.80;23.65;;;;;;;0.29;100.00;100998.31;5077853;28;20347;-75
2022/12/10 19:03:05;;;;;;;62.75;25.95;;;;;;;0.25;100.00;100996.94;5079257;28;20039;-72
2022/12/10 19:05:32;;;;;;;64.25;25.90;;;;;;;0.24;100.00;101000.59;5078289;28;20027;-71
2022/12/10 19:07:57;;;;;;;69.78;29.23;;;;;;;0.22;100.00;101003.41;5074720;28;20016;-70
2022/12/10 19:10:23;;;;;;;72.18;30.13;;;;;;;0.21;100.00;101008.88;5069833;28;20142;-72
2022/12/10 19:12:49;;;;;;;66.38;27.98;;;;;;;0.22;100.00;101003.41;5074441;28;20035;-69
2022/12/10 19:15:17;;;;;;;62.78;26.70;;;;;;;0.20;100.00;101001.88;5078498;28;20040;-69
2022/12/10 19:17:43;;;;;;;61.00;26.15;;;;;;;0.23;100.00;100996.25;5066679;28;20036;-69
2022/12/10 19:20:21;;;;;;;54.42;23.80;;;;;;;0.23;100.00;100996.25;5086027;28;20518;-70
2022/12/10 19:22:46;;;;;;;52.58;22.40;;;;;;;0.23;100.00;100989.13;5092335;28;20040;-69
2022/12/10 19:25:12;;;;;;;55.97;24.50;;;;;;;0.24;100.00;100990.81;5090549;28;20032;-68
2022/12/10 19:27:38;;;;;;;55.65;25.35;;;;;;;0.29;100.00;100990.34;5084368;28;20031;-72
2022/12/10 19:30:06;;;;;;;56.25;23.98;;;;;;;0.34;100.00;100988.03;5081350;28;20099;-73
2022/12/10 19:32:31;;;;;;;53.08;23.17;;;;;;;0.40;100.00;100987.41;5088647;28;20027;-70
2022/12/10 19:34:56;;;;;;;52.42;22.27;;;;;;;0.44;100.00;100975.47;5089071;28;20020;-70
2022/12/10 19:37:22;;;;;;;48.58;21.75;;;;;;;0.47;100.00;100975.16;5093553;28;20059;-71
2022/12/10 19:39:47;;;;;;;49.13;22.60;;;;;;;0.51;100.00;100975.66;5091684;28;20077;-70
2022/12/10 19:42:12;;;;;;;50.45;22.52;;;;;;;0.56;100.00;100968.06;5081357;28;20059;-70
2022/12/10 19:44:37;;;;;;;57.50;24.20;;;;;;;0.60;100.00;100972.06;5068424;28;20608;-71
2022/12/10 19:47:03;;;;;;;51.50;21.63;;;;;;;0.64;100.00;100972.59;5074523;28;20033;-70
2022/12/10 19:49:28;;;;;;;51.95;22.88;;;;;;;0.64;100.00;100975.28;5075090;28;20040;-71
2022/12/10 19:51:53;;;;;;;55.45;26.70;;;;;;;0.64;100.00;100970.78;5071177;28;20493;-70
2022/12/10 19:54:19;;;;;;;51.75;25.52;;;;;;;0.67;100.00;100977.63;5087201;28;20030;-70
2022/12/10 19:56:44;;;;;;;59.70;26.50;;;;;;;0.68;100.00;100972.13;5073143;28;20073;-71
2022/12/10 19:59:15;;;;;;;52.10;25.27;;;;;;;0.72;100.00;100975.31;5069690;28;20048;-69
2022/12/10 20:01:42;;;;;;;61.28;28.55;;;;;;;0.74;100.00;100970.69;5062735;28;20050;-70
2022/12/10 20:04:07;;;;;;;63.63;27.65;;;;;;;0.72;100.00;100967.31;5072738;28;20134;-70
2022/12/10 20:06:38;;;;;;;65.00;29.38;;;;;;;0.74;100.00;100970.69;5067940;28;20416;-70
2022/12/10 20:09:14;;;;;;;58.72;26.35;;;;;;;0.78;100.00;100973.84;5074020;28;20479;-72
2022/12/10 20:11:39;;;;;;;61.85;27.38;;;;;;;0.82;100.00;100976.03;5060023;28;20036;-71
2022/12/10 20:14:04;;;;;;;62.70;28.38;;;;;;;0.79;100.00;100965.69;5072664;28;20036;-70
2022/12/10 20:16:31;;;;;;;60.70;28.65;;;;;;;0.82;100.00;100968.03;5086199;28;20398;-71
2022/12/10 20:18:57;;;;;;;64.97;27.40;;;;;;;0.82;100.00;100973.38;5093195;28;20037;-73
2022/12/10 20:21:26;;;;;;;66.60;30.73;;;;;;;0.83;100.00;100967.06;5090996;28;20059;-72
2022/12/10 20:23:52;;;;;;;72.28;29.67;;;;;;;0.87;100.00;100972.91;5072315;28;20051;-72
2022/12/10 20:26:50;;;;;;;62.45;28.73;;;;;;;0.95;100.00;100972.09;5084507;28;20055;-70
2022/12/10 20:29:18;;;;;;;59.08;27.92;;;;;;;0.93;100.00;100979.44;5080668;28;20067;-70
2022/12/10 20:31:45;;;;;;;66.43;28.23;;;;;;;0.91;100.00;100984.91;5075993;28;20138;-77
2022/12/10 20:34:10;;;;;;;69.18;28.52;;;;;;;0.92;100.00;100975.94;5068637;28;20063;-68
2022/12/10 20:36:37;;;;;;;62.20;28.67;;;;;;;0.96;100.00;100985.25;5076400;28;20139;-68
2022/12/10 20:39:15;;;;;;;68.53;30.17;;;;;;;0.94;100.00;100981.94;5072159;28;20040;-68
2022/12/10 20:41:40;;;;;;;70.53;30.63;;;;;;;0.93;100.00;100977.59;5057055;28;20028;-68
2022/12/10 20:44:05;;;;;;;64.65;30.73;;;;;;;0.93;100.00;100988.25;5072037;28;20026;-71